sensor_id;sensor_type;location;lat;lon;timestamp;P1;durP1;ratioP1;P2;durP2;ratioP2
11247;SDS011;5681;53.316;13.950;2022-07-10T00:00:44;4.60;;;1.25;;
11247;SDS011;5681;53.316;13.950;2022-07-10T00:03:10;4.28;;;1.02;;
11247;SDS011;5681;53.316;13.950;2022-07-10T00:05:38;5.45;;;1.10;;
11247;SDS011;5681;53.316;13.950;2022-07-10T00:08:05;3.72;;;1.20;;
11247;SDS011;5681;53.316;13.950;2022-07-10T00:10:31;4.97;;;1.33;;
11247;SDS011;5681;53.316;13.950;2022-07-10T00:12:58;5.18;;;1.48;;
11247;SDS011;5681;53.316;13.950;2022-07-10T00:15:24;8.60;;;1.20;;
11247;SDS011;5681;53.316;13.950;2022-07-10T00:17:51;6.05;;;1.38;;
11247;SDS011;5681;53.316;13.950;2022-07-10T00:20:17;9.95;;;1.00;;
11247;SDS011;5681;53.316;13.950;2022-07-10T00:22:45;5.85;;;1.20;;
11247;SDS011;5681;53.316;13.950;2022-07-10T00:25:12;4.20;;;0.85;;
11247;SDS011;5681;53.316;13.950;2022-07-10T00:27:39;5.18;;;1.38;;
11247;SDS011;5681;53.316;13.950;2022-07-10T00:30:07;5.95;;;1.20;;
11247;SDS011;5681;53.316;13.950;2022-07-10T00:32:34;6.32;;;1.40;;
11247;SDS011;5681;53.316;13.950;2022-07-10T00:35:00;5.72;;;1.10;;
11247;SDS011;5681;53.316;13.950;2022-07-10T00:37:28;5.95;;;1.27;;
11247;SDS011;5681;53.316;13.950;2022-07-10T00:39:55;5.13;;;1.17;;
11247;SDS011;5681;53.316;13.950;2022-07-10T00:42:22;5.85;;;1.15;;
11247;SDS011;5681;53.316;13.950;2022-07-10T00:44:48;6.60;;;1.48;;
11247;SDS011;5681;53.316;13.950;2022-07-10T00:47:15;4.03;;;0.98;;
11247;SDS011;5681;53.316;13.950;2022-07-10T00:49:44;3.42;;;0.98;;
11247;SDS011;5681;53.316;13.950;2022-07-10T00:52:12;3.67;;;1.23;;
11247;SDS011;5681;53.316;13.950;2022-07-10T00:54:41;3.70;;;1.00;;
11247;SDS011;5681;53.316;13.950;2022-07-10T00:57:10;5.53;;;1.40;;
11247;SDS011;5681;53.316;13.950;2022-07-10T00:59:39;4.30;;;1.20;;
11247;SDS011;5681;53.316;13.950;2022-07-10T01:02:06;5.95;;;1.45;;
11247;SDS011;5681;53.316;13.950;2022-07-10T01:04:32;7.32;;;1.25;;
11247;SDS011;5681;53.316;13.950;2022-07-10T01:06:59;5.82;;;1.20;;
11247;SDS011;5681;53.316;13.950;2022-07-10T01:09:25;6.53;;;1.33;;
11247;SDS011;5681;53.316;13.950;2022-07-10T01:11:52;4.25;;;1.00;;
11247;SDS011;5681;53.316;13.950;2022-07-10T01:14:20;4.47;;;1.40;;
11247;SDS011;5681;53.316;13.950;2022-07-10T01:16:46;7.22;;;1.25;;
11247;SDS011;5681;53.316;13.950;2022-07-10T01:19:12;6.60;;;1.00;;
11247;SDS011;5681;53.316;13.950;2022-07-10T01:21:40;6.68;;;1.30;;
11247;SDS011;5681;53.316;13.950;2022-07-10T01:24:07;3.53;;;0.82;;
11247;SDS011;5681;53.316;13.950;2022-07-10T01:26:34;4.28;;;1.13;;
11247;SDS011;5681;53.316;13.950;2022-07-10T01:29:02;5.00;;;1.20;;
11247;SDS011;5681;53.316;13.950;2022-07-10T01:31:28;8.85;;;1.58;;
11247;SDS011;5681;53.316;13.950;2022-07-10T01:33:55;4.88;;;1.35;;
11247;SDS011;5681;53.316;13.950;2022-07-10T01:36:21;4.55;;;1.25;;
11247;SDS011;5681;53.316;13.950;2022-07-10T01:38:51;4.00;;;1.15;;
11247;SDS011;5681;53.316;13.950;2022-07-10T01:41:18;2.35;;;1.02;;
11247;SDS011;5681;53.316;13.950;2022-07-10T01:43:45;5.80;;;1.08;;
11247;SDS011;5681;53.316;13.950;2022-07-10T01:46:13;5.72;;;1.10;;
11247;SDS011;5681;53.316;13.950;2022-07-10T01:48:39;4.20;;;1.10;;
11247;SDS011;5681;53.316;13.950;2022-07-10T01:51:06;4.57;;;1.23;;
11247;SDS011;5681;53.316;13.950;2022-07-10T01:53:34;6.55;;;1.30;;
11247;SDS011;5681;53.316;13.950;2022-07-10T01:56:03;9.88;;;1.50;;
11247;SDS011;5681;53.316;13.950;2022-07-10T01:58:30;4.53;;;1.45;;
11247;SDS011;5681;53.316;13.950;2022-07-10T02:00:56;4.88;;;1.30;;
11247;SDS011;5681;53.316;13.950;2022-07-10T02:03:23;4.65;;;1.33;;
11247;SDS011;5681;53.316;13.950;2022-07-10T02:06:07;7.53;;;1.48;;
11247;SDS011;5681;53.316;13.950;2022-07-10T02:08:33;5.18;;;1.20;;
11247;SDS011;5681;53.316;13.950;2022-07-10T02:11:00;6.63;;;1.27;;
11247;SDS011;5681;53.316;13.950;2022-07-10T02:13:27;7.10;;;1.30;;
11247;SDS011;5681;53.316;13.950;2022-07-10T02:15:54;2.47;;;1.10;;
11247;SDS011;5681;53.316;13.950;2022-07-10T02:18:20;4.53;;;1.45;;
11247;SDS011;5681;53.316;13.950;2022-07-10T02:20:47;6.22;;;1.48;;
11247;SDS011;5681;53.316;13.950;2022-07-10T02:23:13;5.07;;;1.23;;
11247;SDS011;5681;53.316;13.950;2022-07-10T02:25:40;4.22;;;1.10;;
11247;SDS011;5681;53.316;13.950;2022-07-10T02:28:07;2.90;;;1.10;;
11247;SDS011;5681;53.316;13.950;2022-07-10T02:30:35;5.57;;;1.23;;
11247;SDS011;5681;53.316;13.950;2022-07-10T02:33:02;3.88;;;1.10;;
11247;SDS011;5681;53.316;13.950;2022-07-10T02:35:28;5.95;;;1.30;;
11247;SDS011;5681;53.316;13.950;2022-07-10T02:37:55;9.43;;;1.20;;
11247;SDS011;5681;53.316;13.950;2022-07-10T02:40:21;3.28;;;1.20;;
11247;SDS011;5681;53.316;13.950;2022-07-10T02:42:48;5.13;;;1.10;;
11247;SDS011;5681;53.316;13.950;2022-07-10T02:45:14;4.30;;;1.15;;
11247;SDS011;5681;53.316;13.950;2022-07-10T02:47:42;4.55;;;0.90;;
11247;SDS011;5681;53.316;13.950;2022-07-10T02:50:08;5.05;;;1.17;;
11247;SDS011;5681;53.316;13.950;2022-07-10T02:52:35;6.50;;;1.40;;
11247;SDS011;5681;53.316;13.950;2022-07-10T02:55:01;4.20;;;1.10;;
11247;SDS011;5681;53.316;13.950;2022-07-10T02:57:28;4.03;;;1.05;;
11247;SDS011;5681;53.316;13.950;2022-07-10T02:59:54;5.57;;;1.25;;
11247;SDS011;5681;53.316;13.950;2022-07-10T03:02:20;8.27;;;1.35;;
11247;SDS011;5681;53.316;13.950;2022-07-10T03:04:48;8.60;;;1.60;;
11247;SDS011;5681;53.316;13.950;2022-07-10T03:07:14;5.90;;;1.25;;
11247;SDS011;5681;53.316;13.950;2022-07-10T03:09:41;6.40;;;1.20;;
11247;SDS011;5681;53.316;13.950;2022-07-10T03:12:07;5.25;;;1.10;;
11247;SDS011;5681;53.316;13.950;2022-07-10T03:14:33;3.63;;;1.30;;
11247;SDS011;5681;53.316;13.950;2022-07-10T03:17:00;5.55;;;1.27;;
11247;SDS011;5681;53.316;13.950;2022-07-10T03:19:26;3.50;;;1.27;;
11247;SDS011;5681;53.316;13.950;2022-07-10T03:21:54;2.80;;;1.10;;
11247;SDS011;5681;53.316;13.950;2022-07-10T03:24:20;4.90;;;1.33;;
11247;SDS011;5681;53.316;13.950;2022-07-10T03:26:47;6.03;;;1.58;;
11247;SDS011;5681;53.316;13.950;2022-07-10T03:29:13;7.03;;;1.52;;
11247;SDS011;5681;53.316;13.950;2022-07-10T03:31:39;4.78;;;1.33;;
11247;SDS011;5681;53.316;13.950;2022-07-10T03:34:06;5.95;;;1.63;;
11247;SDS011;5681;53.316;13.950;2022-07-10T03:36:32;5.78;;;1.45;;
11247;SDS011;5681;53.316;13.950;2022-07-10T03:39:00;5.45;;;1.70;;
11247;SDS011;5681;53.316;13.950;2022-07-10T03:41:26;3.78;;;1.40;;
11247;SDS011;5681;53.316;13.950;2022-07-10T03:43:53;4.65;;;1.40;;
11247;SDS011;5681;53.316;13.950;2022-07-10T03:46:19;5.15;;;1.45;;
11247;SDS011;5681;53.316;13.950;2022-07-10T03:48:46;5.57;;;1.58;;
11247;SDS011;5681;53.316;13.950;2022-07-10T03:51:12;4.47;;;1.25;;
11247;SDS011;5681;53.316;13.950;2022-07-10T03:53:38;6.15;;;1.65;;
11247;SDS011;5681;53.316;13.950;2022-07-10T03:56:07;7.07;;;1.60;;
11247;SDS011;5681;53.316;13.950;2022-07-10T03:58:33;6.35;;;1.50;;
11247;SDS011;5681;53.316;13.950;2022-07-10T04:00:58;4.10;;;1.45;;
11247;SDS011;5681;53.316;13.950;2022-07-10T04:03:25;5.72;;;1.30;;
11247;SDS011;5681;53.316;13.950;2022-07-10T04:05:51;7.63;;;1.25;;
11247;SDS011;5681;53.316;13.950;2022-07-10T04:08:17;4.93;;;1.60;;
11247;SDS011;5681;53.316;13.950;2022-07-10T04:10:44;7.28;;;1.55;;
11247;SDS011;5681;53.316;13.950;2022-07-10T04:13:12;8.18;;;1.88;;
11247;SDS011;5681;53.316;13.950;2022-07-10T04:15:38;6.72;;;1.50;;
11247;SDS011;5681;53.316;13.950;2022-07-10T04:18:04;6.65;;;1.65;;
11247;SDS011;5681;53.316;13.950;2022-07-10T04:20:31;5.25;;;1.42;;
11247;SDS011;5681;53.316;13.950;2022-07-10T04:22:57;8.52;;;1.88;;
11247;SDS011;5681;53.316;13.950;2022-07-10T04:25:23;7.85;;;2.13;;
11247;SDS011;5681;53.316;13.950;2022-07-10T04:27:50;6.18;;;1.50;;
11247;SDS011;5681;53.316;13.950;2022-07-10T04:30:17;5.55;;;1.55;;
11247;SDS011;5681;53.316;13.950;2022-07-10T04:32:44;8.32;;;2.10;;
11247;SDS011;5681;53.316;13.950;2022-07-10T04:35:10;5.60;;;1.65;;
11247;SDS011;5681;53.316;13.950;2022-07-10T04:37:36;7.72;;;1.88;;
11247;SDS011;5681;53.316;13.950;2022-07-10T04:40:04;7.50;;;1.75;;
11247;SDS011;5681;53.316;13.950;2022-07-10T04:42:31;5.50;;;1.55;;
11247;SDS011;5681;53.316;13.950;2022-07-10T04:44:57;9.25;;;2.08;;
11247;SDS011;5681;53.316;13.950;2022-07-10T04:47:25;9.20;;;1.92;;
11247;SDS011;5681;53.316;13.950;2022-07-10T04:49:52;9.10;;;1.90;;
11247;SDS011;5681;53.316;13.950;2022-07-10T04:52:18;7.10;;;1.83;;
11247;SDS011;5681;53.316;13.950;2022-07-10T04:54:44;6.82;;;1.70;;
11247;SDS011;5681;53.316;13.950;2022-07-10T04:57:11;13.25;;;2.10;;
11247;SDS011;5681;53.316;13.950;2022-07-10T04:59:38;7.88;;;1.90;;
11247;SDS011;5681;53.316;13.950;2022-07-10T05:02:04;8.90;;;2.28;;
11247;SDS011;5681;53.316;13.950;2022-07-10T05:04:33;8.95;;;1.80;;
11247;SDS011;5681;53.316;13.950;2022-07-10T05:06:59;9.40;;;2.10;;
11247;SDS011;5681;53.316;13.950;2022-07-10T05:09:26;10.27;;;2.15;;
11247;SDS011;5681;53.316;13.950;2022-07-10T05:11:52;7.95;;;1.85;;
11247;SDS011;5681;53.316;13.950;2022-07-10T05:14:19;10.30;;;2.40;;
11247;SDS011;5681;53.316;13.950;2022-07-10T05:16:46;8.95;;;2.00;;
11247;SDS011;5681;53.316;13.950;2022-07-10T05:19:13;10.35;;;2.25;;
11247;SDS011;5681;53.316;13.950;2022-07-10T05:21:40;10.18;;;2.00;;
11247;SDS011;5681;53.316;13.950;2022-07-10T05:24:07;12.15;;;2.70;;
11247;SDS011;5681;53.316;13.950;2022-07-10T05:26:33;14.00;;;2.45;;
11247;SDS011;5681;53.316;13.950;2022-07-10T05:29:01;9.57;;;2.10;;
11247;SDS011;5681;53.316;13.950;2022-07-10T05:31:28;7.47;;;2.10;;
11247;SDS011;5681;53.316;13.950;2022-07-10T05:33:54;11.23;;;2.22;;
11247;SDS011;5681;53.316;13.950;2022-07-10T05:36:20;15.48;;;2.08;;
11247;SDS011;5681;53.316;13.950;2022-07-10T05:38:48;8.88;;;2.17;;
11247;SDS011;5681;53.316;13.950;2022-07-10T05:41:15;12.77;;;2.60;;
11247;SDS011;5681;53.316;13.950;2022-07-10T05:43:41;11.32;;;2.25;;
11247;SDS011;5681;53.316;13.950;2022-07-10T05:46:07;7.70;;;2.08;;
11247;SDS011;5681;53.316;13.950;2022-07-10T05:48:34;13.70;;;2.63;;
11247;SDS011;5681;53.316;13.950;2022-07-10T05:51:00;14.25;;;2.53;;
11247;SDS011;5681;53.316;13.950;2022-07-10T05:53:27;14.25;;;2.50;;
11247;SDS011;5681;53.316;13.950;2022-07-10T05:55:54;10.20;;;2.20;;
11247;SDS011;5681;53.316;13.950;2022-07-10T05:58:20;9.50;;;2.17;;
11247;SDS011;5681;53.316;13.950;2022-07-10T06:00:47;12.05;;;2.42;;
11247;SDS011;5681;53.316;13.950;2022-07-10T06:03:14;8.98;;;2.42;;
11247;SDS011;5681;53.316;13.950;2022-07-10T06:05:41;12.40;;;2.65;;
11247;SDS011;5681;53.316;13.950;2022-07-10T06:08:08;12.05;;;2.42;;
11247;SDS011;5681;53.316;13.950;2022-07-10T06:10:36;12.07;;;2.65;;
11247;SDS011;5681;53.316;13.950;2022-07-10T06:13:05;11.02;;;2.25;;
11247;SDS011;5681;53.316;13.950;2022-07-10T06:15:32;10.88;;;2.85;;
11247;SDS011;5681;53.316;13.950;2022-07-10T06:17:58;13.55;;;2.75;;
11247;SDS011;5681;53.316;13.950;2022-07-10T06:20:24;11.02;;;3.00;;
11247;SDS011;5681;53.316;13.950;2022-07-10T06:22:51;10.35;;;2.90;;
11247;SDS011;5681;53.316;13.950;2022-07-10T06:25:17;9.68;;;2.40;;
11247;SDS011;5681;53.316;13.950;2022-07-10T06:27:44;11.00;;;2.63;;
11247;SDS011;5681;53.316;13.950;2022-07-10T06:30:11;9.68;;;2.38;;
11247;SDS011;5681;53.316;13.950;2022-07-10T06:32:38;12.10;;;2.60;;
11247;SDS011;5681;53.316;13.950;2022-07-10T06:35:05;13.25;;;2.42;;
11247;SDS011;5681;53.316;13.950;2022-07-10T06:37:32;9.18;;;2.67;;
11247;SDS011;5681;53.316;13.950;2022-07-10T06:39:58;12.02;;;2.60;;
11247;SDS011;5681;53.316;13.950;2022-07-10T06:42:25;12.13;;;2.42;;
11247;SDS011;5681;53.316;13.950;2022-07-10T06:44:51;8.18;;;2.30;;
11247;SDS011;5681;53.316;13.950;2022-07-10T06:47:19;9.90;;;2.42;;
11247;SDS011;5681;53.316;13.950;2022-07-10T06:50:03;10.27;;;2.45;;
11247;SDS011;5681;53.316;13.950;2022-07-10T06:52:30;11.88;;;2.78;;
11247;SDS011;5681;53.316;13.950;2022-07-10T06:54:57;9.20;;;2.22;;
11247;SDS011;5681;53.316;13.950;2022-07-10T06:57:23;15.48;;;3.08;;
11247;SDS011;5681;53.316;13.950;2022-07-10T06:59:50;11.43;;;2.13;;
11247;SDS011;5681;53.316;13.950;2022-07-10T07:02:18;11.77;;;2.67;;
11247;SDS011;5681;53.316;13.950;2022-07-10T07:04:45;12.07;;;2.50;;
11247;SDS011;5681;53.316;13.950;2022-07-10T07:07:11;9.07;;;2.20;;
11247;SDS011;5681;53.316;13.950;2022-07-10T07:09:38;9.38;;;2.17;;
11247;SDS011;5681;53.316;13.950;2022-07-10T07:12:05;9.45;;;2.45;;
11247;SDS011;5681;53.316;13.950;2022-07-10T07:14:32;10.20;;;2.30;;
11247;SDS011;5681;53.316;13.950;2022-07-10T07:16:58;8.43;;;2.15;;
11247;SDS011;5681;53.316;13.950;2022-07-10T07:19:29;11.30;;;2.50;;
11247;SDS011;5681;53.316;13.950;2022-07-10T07:22:19;8.38;;;2.10;;
11247;SDS011;5681;53.316;13.950;2022-07-10T07:25:03;8.77;;;2.30;;
11247;SDS011;5681;53.316;13.950;2022-07-10T07:27:30;10.70;;;2.55;;
11247;SDS011;5681;53.316;13.950;2022-07-10T07:30:00;9.55;;;2.13;;
11247;SDS011;5681;53.316;13.950;2022-07-10T07:32:28;7.55;;;2.00;;
11247;SDS011;5681;53.316;13.950;2022-07-10T07:34:55;8.77;;;1.92;;
11247;SDS011;5681;53.316;13.950;2022-07-10T07:37:22;8.18;;;2.05;;
11247;SDS011;5681;53.316;13.950;2022-07-10T07:39:48;11.02;;;2.40;;
11247;SDS011;5681;53.316;13.950;2022-07-10T07:42:15;17.92;;;2.42;;
11247;SDS011;5681;53.316;13.950;2022-07-10T07:44:41;5.68;;;1.75;;
11247;SDS011;5681;53.316;13.950;2022-07-10T07:47:07;11.30;;;1.80;;
11247;SDS011;5681;53.316;13.950;2022-07-10T07:49:34;8.32;;;2.00;;
11247;SDS011;5681;53.316;13.950;2022-07-10T07:52:02;8.57;;;1.95;;
11247;SDS011;5681;53.316;13.950;2022-07-10T07:54:28;8.02;;;1.98;;
11247;SDS011;5681;53.316;13.950;2022-07-10T07:56:55;8.32;;;2.33;;
11247;SDS011;5681;53.316;13.950;2022-07-10T07:59:22;9.57;;;2.20;;
11247;SDS011;5681;53.316;13.950;2022-07-10T08:01:49;10.85;;;2.58;;
11247;SDS011;5681;53.316;13.950;2022-07-10T08:04:15;10.18;;;1.90;;
11247;SDS011;5681;53.316;13.950;2022-07-10T08:06:41;8.73;;;2.35;;
11247;SDS011;5681;53.316;13.950;2022-07-10T08:09:09;5.97;;;1.95;;
11247;SDS011;5681;53.316;13.950;2022-07-10T08:11:35;9.10;;;2.22;;
11247;SDS011;5681;53.316;13.950;2022-07-10T08:14:02;12.48;;;2.22;;
11247;SDS011;5681;53.316;13.950;2022-07-10T08:16:28;9.98;;;2.35;;
11247;SDS011;5681;53.316;13.950;2022-07-10T08:18:55;7.38;;;1.65;;
11247;SDS011;5681;53.316;13.950;2022-07-10T08:21:21;11.48;;;2.78;;
11247;SDS011;5681;53.316;13.950;2022-07-10T08:23:47;9.73;;;2.10;;
11247;SDS011;5681;53.316;13.950;2022-07-10T08:26:15;5.88;;;1.92;;
11247;SDS011;5681;53.316;13.950;2022-07-10T08:28:41;8.40;;;2.22;;
11247;SDS011;5681;53.316;13.950;2022-07-10T08:31:08;9.68;;;1.88;;
11247;SDS011;5681;53.316;13.950;2022-07-10T08:33:34;10.07;;;2.70;;
11247;SDS011;5681;53.316;13.950;2022-07-10T08:36:01;8.75;;;2.08;;
11247;SDS011;5681;53.316;13.950;2022-07-10T08:38:27;7.45;;;2.10;;
11247;SDS011;5681;53.316;13.950;2022-07-10T08:40:53;6.68;;;2.28;;
11247;SDS011;5681;53.316;13.950;2022-07-10T08:43:23;5.18;;;1.67;;
11247;SDS011;5681;53.316;13.950;2022-07-10T08:45:50;7.03;;;1.77;;
11247;SDS011;5681;53.316;13.950;2022-07-10T08:48:19;7.25;;;1.67;;
11247;SDS011;5681;53.316;13.950;2022-07-10T08:50:47;7.13;;;2.05;;
11247;SDS011;5681;53.316;13.950;2022-07-10T08:53:18;6.60;;;1.98;;
11247;SDS011;5681;53.316;13.950;2022-07-10T08:55:49;6.28;;;1.90;;
11247;SDS011;5681;53.316;13.950;2022-07-10T08:58:16;6.82;;;1.60;;
11247;SDS011;5681;53.316;13.950;2022-07-10T09:00:45;8.10;;;1.70;;
11247;SDS011;5681;53.316;13.950;2022-07-10T09:03:11;9.30;;;1.95;;
11247;SDS011;5681;53.316;13.950;2022-07-10T09:05:37;10.77;;;1.88;;
11247;SDS011;5681;53.316;13.950;2022-07-10T09:08:07;5.88;;;1.75;;
11247;SDS011;5681;53.316;13.950;2022-07-10T09:10:47;8.25;;;1.83;;
11247;SDS011;5681;53.316;13.950;2022-07-10T09:13:13;5.50;;;1.70;;
11247;SDS011;5681;53.316;13.950;2022-07-10T09:15:39;6.20;;;1.85;;
11247;SDS011;5681;53.316;13.950;2022-07-10T09:18:07;7.43;;;2.00;;
11247;SDS011;5681;53.316;13.950;2022-07-10T09:20:35;7.28;;;1.98;;
11247;SDS011;5681;53.316;13.950;2022-07-10T09:23:09;9.40;;;1.92;;
11247;SDS011;5681;53.316;13.950;2022-07-10T09:25:42;10.15;;;1.88;;
11247;SDS011;5681;53.316;13.950;2022-07-10T09:28:09;8.05;;;1.95;;
11247;SDS011;5681;53.316;13.950;2022-07-10T09:30:36;5.75;;;1.65;;
11247;SDS011;5681;53.316;13.950;2022-07-10T09:33:18;5.80;;;1.73;;
11247;SDS011;5681;53.316;13.950;2022-07-10T09:35:58;5.95;;;1.80;;
11247;SDS011;5681;53.316;13.950;2022-07-10T09:38:50;8.00;;;1.75;;
11247;SDS011;5681;53.316;13.950;2022-07-10T09:41:22;8.60;;;2.08;;
11247;SDS011;5681;53.316;13.950;2022-07-10T09:43:50;5.90;;;1.83;;
11247;SDS011;5681;53.316;13.950;2022-07-10T09:46:18;7.53;;;1.75;;
11247;SDS011;5681;53.316;13.950;2022-07-10T09:48:47;10.07;;;2.35;;
11247;SDS011;5681;53.316;13.950;2022-07-10T09:51:14;7.32;;;1.75;;
11247;SDS011;5681;53.316;13.950;2022-07-10T09:53:40;8.80;;;1.85;;
11247;SDS011;5681;53.316;13.950;2022-07-10T09:56:08;7.60;;;2.05;;
11247;SDS011;5681;53.316;13.950;2022-07-10T09:58:35;6.55;;;1.70;;
11247;SDS011;5681;53.316;13.950;2022-07-10T10:01:02;8.52;;;1.80;;
11247;SDS011;5681;53.316;13.950;2022-07-10T10:03:31;7.95;;;1.83;;
11247;SDS011;5681;53.316;13.950;2022-07-10T10:06:02;4.18;;;1.63;;
11247;SDS011;5681;53.316;13.950;2022-07-10T10:08:31;4.72;;;1.60;;
11247;SDS011;5681;53.316;13.950;2022-07-10T10:11:00;6.47;;;2.00;;
11247;SDS011;5681;53.316;13.950;2022-07-10T10:13:27;8.00;;;2.00;;
11247;SDS011;5681;53.316;13.950;2022-07-10T10:15:55;6.00;;;1.92;;
11247;SDS011;5681;53.316;13.950;2022-07-10T10:18:22;9.90;;;1.88;;
11247;SDS011;5681;53.316;13.950;2022-07-10T10:20:49;6.90;;;1.90;;
11247;SDS011;5681;53.316;13.950;2022-07-10T10:23:18;6.40;;;1.73;;
11247;SDS011;5681;53.316;13.950;2022-07-10T10:25:46;4.68;;;1.33;;
11247;SDS011;5681;53.316;13.950;2022-07-10T10:28:13;4.05;;;1.60;;
11247;SDS011;5681;53.316;13.950;2022-07-10T10:30:41;9.48;;;1.70;;
11247;SDS011;5681;53.316;13.950;2022-07-10T10:36:10;6.78;;;2.03;;
11247;SDS011;5681;53.316;13.950;2022-07-10T10:41:38;12.30;;;2.17;;
11247;SDS011;5681;53.316;13.950;2022-07-10T10:44:21;6.88;;;1.90;;
11247;SDS011;5681;53.316;13.950;2022-07-10T10:46:58;6.57;;;1.60;;
11247;SDS011;5681;53.316;13.950;2022-07-10T10:49:49;6.00;;;1.50;;
11247;SDS011;5681;53.316;13.950;2022-07-10T10:52:17;6.57;;;1.63;;
11247;SDS011;5681;53.316;13.950;2022-07-10T10:55:00;6.05;;;1.73;;
11247;SDS011;5681;53.316;13.950;2022-07-10T10:57:40;7.20;;;1.55;;
11247;SDS011;5681;53.316;13.950;2022-07-10T11:00:29;7.85;;;1.73;;
11247;SDS011;5681;53.316;13.950;2022-07-10T11:03:18;4.45;;;1.60;;
11247;SDS011;5681;53.316;13.950;2022-07-10T11:05:46;7.45;;;1.70;;
11247;SDS011;5681;53.316;13.950;2022-07-10T11:08:14;4.35;;;1.60;;
11247;SDS011;5681;53.316;13.950;2022-07-10T11:14:05;5.18;;;1.63;;
11247;SDS011;5681;53.316;13.950;2022-07-10T11:16:31;7.78;;;1.60;;
11247;SDS011;5681;53.316;13.950;2022-07-10T11:18:58;5.70;;;1.50;;
11247;SDS011;5681;53.316;13.950;2022-07-10T11:21:26;3.95;;;1.40;;
11247;SDS011;5681;53.316;13.950;2022-07-10T11:23:56;7.60;;;1.38;;
11247;SDS011;5681;53.316;13.950;2022-07-10T11:26:24;4.78;;;1.38;;
11247;SDS011;5681;53.316;13.950;2022-07-10T11:28:55;5.43;;;1.65;;
11247;SDS011;5681;53.316;13.950;2022-07-10T11:31:25;3.75;;;1.08;;
11247;SDS011;5681;53.316;13.950;2022-07-10T11:33:52;7.28;;;1.83;;
11247;SDS011;5681;53.316;13.950;2022-07-10T11:36:20;3.35;;;1.40;;
11247;SDS011;5681;53.316;13.950;2022-07-10T11:38:56;4.97;;;1.60;;
11247;SDS011;5681;53.316;13.950;2022-07-10T11:41:24;4.47;;;1.50;;
11247;SDS011;5681;53.316;13.950;2022-07-10T11:43:51;3.95;;;1.20;;
11247;SDS011;5681;53.316;13.950;2022-07-10T11:46:20;5.03;;;1.30;;
11247;SDS011;5681;53.316;13.950;2022-07-10T11:48:47;4.00;;;1.40;;
11247;SDS011;5681;53.316;13.950;2022-07-10T11:51:16;6.97;;;1.50;;
11247;SDS011;5681;53.316;13.950;2022-07-10T11:53:52;5.38;;;1.75;;
11247;SDS011;5681;53.316;13.950;2022-07-10T11:56:19;8.10;;;2.13;;
11247;SDS011;5681;53.316;13.950;2022-07-10T11:58:52;8.18;;;1.58;;
11247;SDS011;5681;53.316;13.950;2022-07-10T12:01:21;5.50;;;1.27;;
11247;SDS011;5681;53.316;13.950;2022-07-10T12:03:53;3.13;;;1.10;;
11247;SDS011;5681;53.316;13.950;2022-07-10T12:06:23;4.63;;;1.20;;
11247;SDS011;5681;53.316;13.950;2022-07-10T12:08:50;5.22;;;1.45;;
11247;SDS011;5681;53.316;13.950;2022-07-10T12:11:17;4.47;;;1.30;;
11247;SDS011;5681;53.316;13.950;2022-07-10T12:13:45;3.78;;;1.58;;
11247;SDS011;5681;53.316;13.950;2022-07-10T12:16:12;6.82;;;1.75;;
11247;SDS011;5681;53.316;13.950;2022-07-10T12:18:40;3.58;;;1.40;;
11247;SDS011;5681;53.316;13.950;2022-07-10T12:21:07;6.13;;;1.42;;
11247;SDS011;5681;53.316;13.950;2022-07-10T12:23:34;4.60;;;1.40;;
11247;SDS011;5681;53.316;13.950;2022-07-10T12:26:04;5.15;;;1.38;;
11247;SDS011;5681;53.316;13.950;2022-07-10T12:28:32;3.50;;;1.33;;
11247;SDS011;5681;53.316;13.950;2022-07-10T12:31:19;4.97;;;1.40;;
11247;SDS011;5681;53.316;13.950;2022-07-10T12:33:50;5.72;;;1.63;;
11247;SDS011;5681;53.316;13.950;2022-07-10T12:36:19;4.60;;;1.30;;
11247;SDS011;5681;53.316;13.950;2022-07-10T12:38:52;4.75;;;1.20;;
11247;SDS011;5681;53.316;13.950;2022-07-10T12:41:19;6.50;;;1.23;;
11247;SDS011;5681;53.316;13.950;2022-07-10T12:43:49;3.72;;;1.50;;
11247;SDS011;5681;53.316;13.950;2022-07-10T12:46:16;4.38;;;1.40;;
11247;SDS011;5681;53.316;13.950;2022-07-10T12:49:00;7.70;;;1.40;;
11247;SDS011;5681;53.316;13.950;2022-07-10T12:51:32;9.27;;;1.60;;
11247;SDS011;5681;53.316;13.950;2022-07-10T12:53:59;4.13;;;1.65;;
11247;SDS011;5681;53.316;13.950;2022-07-10T12:56:26;3.55;;;1.17;;
11247;SDS011;5681;53.316;13.950;2022-07-10T12:58:57;6.63;;;1.50;;
11247;SDS011;5681;53.316;13.950;2022-07-10T13:01:24;8.43;;;1.50;;
11247;SDS011;5681;53.316;13.950;2022-07-10T13:04:00;4.55;;;1.38;;
11247;SDS011;5681;53.316;13.950;2022-07-10T13:06:29;2.47;;;1.13;;
11247;SDS011;5681;53.316;13.950;2022-07-10T13:08:56;3.70;;;1.20;;
11247;SDS011;5681;53.316;13.950;2022-07-10T13:11:22;2.97;;;1.15;;
11247;SDS011;5681;53.316;13.950;2022-07-10T13:13:48;3.85;;;1.10;;
11247;SDS011;5681;53.316;13.950;2022-07-10T13:16:15;4.10;;;1.23;;
11247;SDS011;5681;53.316;13.950;2022-07-10T13:18:42;3.00;;;1.27;;
11247;SDS011;5681;53.316;13.950;2022-07-10T13:21:08;4.32;;;1.40;;
11247;SDS011;5681;53.316;13.950;2022-07-10T13:23:37;5.13;;;1.33;;
11247;SDS011;5681;53.316;13.950;2022-07-10T13:26:04;6.07;;;1.17;;
11247;SDS011;5681;53.316;13.950;2022-07-10T13:28:32;5.30;;;1.67;;
11247;SDS011;5681;53.316;13.950;2022-07-10T13:30:58;4.75;;;1.48;;
11247;SDS011;5681;53.316;13.950;2022-07-10T13:33:24;4.57;;;1.00;;
11247;SDS011;5681;53.316;13.950;2022-07-10T13:35:52;4.88;;;1.48;;
11247;SDS011;5681;53.316;13.950;2022-07-10T13:38:19;5.40;;;1.35;;
11247;SDS011;5681;53.316;13.950;2022-07-10T13:40:47;4.65;;;1.25;;
11247;SDS011;5681;53.316;13.950;2022-07-10T13:43:13;8.95;;;1.50;;
11247;SDS011;5681;53.316;13.950;2022-07-10T13:45:41;3.00;;;1.13;;
11247;SDS011;5681;53.316;13.950;2022-07-10T13:48:09;5.63;;;1.60;;
11247;SDS011;5681;53.316;13.950;2022-07-10T13:50:36;4.03;;;1.38;;
11247;SDS011;5681;53.316;13.950;2022-07-10T13:53:03;6.00;;;1.40;;
11247;SDS011;5681;53.316;13.950;2022-07-10T13:55:29;3.05;;;1.13;;
11247;SDS011;5681;53.316;13.950;2022-07-10T13:57:57;4.22;;;1.40;;
11247;SDS011;5681;53.316;13.950;2022-07-10T14:00:24;3.42;;;1.10;;
11247;SDS011;5681;53.316;13.950;2022-07-10T14:02:50;3.92;;;1.10;;
11247;SDS011;5681;53.316;13.950;2022-07-10T14:05:17;5.93;;;1.50;;
11247;SDS011;5681;53.316;13.950;2022-07-10T14:07:43;4.82;;;1.35;;
11247;SDS011;5681;53.316;13.950;2022-07-10T14:10:10;3.90;;;1.00;;
11247;SDS011;5681;53.316;13.950;2022-07-10T14:12:36;5.63;;;1.48;;
11247;SDS011;5681;53.316;13.950;2022-07-10T14:15:04;3.50;;;1.40;;
11247;SDS011;5681;53.316;13.950;2022-07-10T14:17:31;7.10;;;1.52;;
11247;SDS011;5681;53.316;13.950;2022-07-10T14:19:57;4.90;;;1.40;;
11247;SDS011;5681;53.316;13.950;2022-07-10T14:22:24;3.55;;;1.40;;
11247;SDS011;5681;53.316;13.950;2022-07-10T14:24:50;3.47;;;1.40;;
11247;SDS011;5681;53.316;13.950;2022-07-10T14:27:18;6.20;;;1.60;;
11247;SDS011;5681;53.316;13.950;2022-07-10T14:29:45;3.85;;;1.38;;
11247;SDS011;5681;53.316;13.950;2022-07-10T14:32:13;3.67;;;1.30;;
11247;SDS011;5681;53.316;13.950;2022-07-10T14:34:39;3.38;;;1.38;;
11247;SDS011;5681;53.316;13.950;2022-07-10T14:37:05;6.47;;;1.42;;
11247;SDS011;5681;53.316;13.950;2022-07-10T14:39:31;3.95;;;1.38;;
11247;SDS011;5681;53.316;13.950;2022-07-10T14:41:58;3.25;;;1.38;;
11247;SDS011;5681;53.316;13.950;2022-07-10T14:44:24;4.10;;;1.23;;
11247;SDS011;5681;53.316;13.950;2022-07-10T14:46:51;5.25;;;1.45;;
11247;SDS011;5681;53.316;13.950;2022-07-10T14:49:18;4.78;;;1.38;;
11247;SDS011;5681;53.316;13.950;2022-07-10T14:51:45;4.28;;;1.20;;
11247;SDS011;5681;53.316;13.950;2022-07-10T14:54:11;3.40;;;1.15;;
11247;SDS011;5681;53.316;13.950;2022-07-10T14:56:37;5.10;;;1.10;;
11247;SDS011;5681;53.316;13.950;2022-07-10T14:59:04;3.53;;;1.20;;